< < Back
Terminal Aerodrome Forecast


Current Version              Previous Versions:   1  2  3  4  5  6  7  8  9  

Terminal Aerodrome Forecast

527
FTUS44 KBMX 191100
TAFTCL
TAF
KTCL 191120Z 1912/2012 03005KT P6SM SCT250=

Latest METAR

056
SAUS70 KWBC 201100
MTRTCL
METAR KTCL 201053Z AUTO 00000KT 10SM CLR 08/06 A3009 RMK AO2 SLP189
T00780061


USA.gov is the U.S. government's official web portal to all federal, state and local government web resources and services.